sensor_id;sensor_type;location;lat;lon;timestamp;pressure;altitude;pressure_sealevel;temperature;humidity
42001;BME280;27689;48.390;10.856;2022-11-24T00:01:30;95408.97;;;6.47;100.00
42001;BME280;27689;48.390;10.856;2022-11-24T00:04:14;95412.66;;;6.45;100.00
42001;BME280;27689;48.390;10.856;2022-11-24T00:06:58;95417.31;;;6.41;100.00
42001;BME280;27689;48.390;10.856;2022-11-24T00:09:42;95415.13;;;6.46;100.00
42001;BME280;27689;48.390;10.856;2022-11-24T00:12:26;95415.94;;;6.47;100.00
42001;BME280;27689;48.390;10.856;2022-11-24T00:15:10;95418.00;;;6.53;100.00
42001;BME280;27689;48.390;10.856;2022-11-24T00:17:54;95429.06;;;6.55;100.00
42001;BME280;27689;48.390;10.856;2022-11-24T00:20:38;95422.63;;;6.59;100.00
42001;BME280;27689;48.390;10.856;2022-11-24T00:23:22;95428.53;;;6.61;100.00
42001;BME280;27689;48.390;10.856;2022-11-24T00:26:09;95433.19;;;6.57;100.00
42001;BME280;27689;48.390;10.856;2022-11-24T00:28:55;95431.13;;;6.61;100.00
42001;BME280;27689;48.390;10.856;2022-11-24T00:31:41;95441.25;;;6.54;100.00
42001;BME280;27689;48.390;10.856;2022-11-24T00:34:25;95442.78;;;6.47;100.00
42001;BME280;27689;48.390;10.856;2022-11-24T00:37:09;95454.84;;;6.48;100.00
42001;BME280;27689;48.390;10.856;2022-11-24T00:39:53;95448.00;;;6.47;100.00
42001;BME280;27689;48.390;10.856;2022-11-24T00:42:37;95445.25;;;6.39;100.00
42001;BME280;27689;48.390;10.856;2022-11-24T00:45:21;95454.28;;;6.45;100.00
42001;BME280;27689;48.390;10.856;2022-11-24T00:48:05;95457.56;;;6.47;100.00
42001;BME280;27689;48.390;10.856;2022-11-24T00:50:57;95461.00;;;6.47;100.00
42001;BME280;27689;48.390;10.856;2022-11-24T00:53:42;95462.91;;;6.45;100.00
42001;BME280;27689;48.390;10.856;2022-11-24T00:56:27;95459.34;;;6.46;100.00
42001;BME280;27689;48.390;10.856;2022-11-24T00:59:12;95469.06;;;6.44;100.00
42001;BME280;27689;48.390;10.856;2022-11-24T01:01:56;95473.84;;;6.39;100.00
42001;BME280;27689;48.390;10.856;2022-11-24T01:04:41;95475.91;;;6.45;100.00
42001;BME280;27689;48.390;10.856;2022-11-24T01:07:24;95481.13;;;6.45;100.00
42001;BME280;27689;48.390;10.856;2022-11-24T01:10:08;95488.78;;;6.56;100.00
42001;BME280;27689;48.390;10.856;2022-11-24T01:12:52;95491.09;;;6.40;100.00
42001;BME280;27689;48.390;10.856;2022-11-24T01:15:36;95495.09;;;6.44;100.00
42001;BME280;27689;48.390;10.856;2022-11-24T01:18:21;95486.59;;;6.32;100.00
42001;BME280;27689;48.390;10.856;2022-11-24T01:21:05;95488.38;;;6.22;100.00
42001;BME280;27689;48.390;10.856;2022-11-24T01:23:49;95491.13;;;6.21;100.00
42001;BME280;27689;48.390;10.856;2022-11-24T01:26:33;95500.69;;;6.20;100.00
42001;BME280;27689;48.390;10.856;2022-11-24T01:29:17;95507.69;;;6.29;100.00
42001;BME280;27689;48.390;10.856;2022-11-24T01:32:01;95506.72;;;6.30;100.00
42001;BME280;27689;48.390;10.856;2022-11-24T01:34:45;95512.06;;;6.29;100.00
42001;BME280;27689;48.390;10.856;2022-11-24T01:37:30;95517.56;;;6.45;100.00
42001;BME280;27689;48.390;10.856;2022-11-24T01:40:14;95525.50;;;6.44;100.00
42001;BME280;27689;48.390;10.856;2022-11-24T01:42:58;95541.66;;;6.38;100.00
42001;BME280;27689;48.390;10.856;2022-11-24T01:45:42;95544.38;;;6.36;100.00
42001;BME280;27689;48.390;10.856;2022-11-24T01:48:35;95551.91;;;6.39;100.00
42001;BME280;27689;48.390;10.856;2022-11-24T01:51:23;95557.41;;;6.36;100.00
42001;BME280;27689;48.390;10.856;2022-11-24T01:54:13;95562.88;;;6.43;100.00
42001;BME280;27689;48.390;10.856;2022-11-24T01:57:04;95554.78;;;6.36;100.00
42001;BME280;27689;48.390;10.856;2022-11-24T01:59:55;95558.22;;;6.46;100.00
42001;BME280;27689;48.390;10.856;2022-11-24T02:02:43;95564.50;;;6.44;100.00
42001;BME280;27689;48.390;10.856;2022-11-24T02:05:40;95567.94;;;6.34;100.00
42001;BME280;27689;48.390;10.856;2022-11-24T02:08:31;95564.06;;;6.29;100.00
42001;BME280;27689;48.390;10.856;2022-11-24T02:11:18;95573.66;;;6.28;100.00
42001;BME280;27689;48.390;10.856;2022-11-24T02:14:06;95559.84;;;6.28;100.00
42001;BME280;27689;48.390;10.856;2022-11-24T02:16:51;95572.69;;;6.20;100.00
42001;BME280;27689;48.390;10.856;2022-11-24T02:25:22;95590.47;;;6.24;100.00
42001;BME280;27689;48.390;10.856;2022-11-24T02:28:13;95590.34;;;6.16;100.00
42001;BME280;27689;48.390;10.856;2022-11-24T02:30:59;95587.88;;;6.15;100.00
42001;BME280;27689;48.390;10.856;2022-11-24T02:33:43;95587.44;;;6.10;100.00
42001;BME280;27689;48.390;10.856;2022-11-24T02:36:27;95593.03;;;6.05;100.00
42001;BME280;27689;48.390;10.856;2022-11-24T02:39:12;95593.44;;;6.00;100.00
42001;BME280;27689;48.390;10.856;2022-11-24T02:42:00;95592.63;;;6.10;100.00
42001;BME280;27689;48.390;10.856;2022-11-24T02:44:48;95597.16;;;6.08;100.00
42001;BME280;27689;48.390;10.856;2022-11-24T02:47:33;95590.56;;;6.04;100.00
42001;BME280;27689;48.390;10.856;2022-11-24T02:50:17;95598.78;;;6.09;100.00
42001;BME280;27689;48.390;10.856;2022-11-24T02:53:01;95602.06;;;6.11;100.00
42001;BME280;27689;48.390;10.856;2022-11-24T02:55:45;95603.44;;;6.05;100.00
42001;BME280;27689;48.390;10.856;2022-11-24T02:58:29;95614.13;;;6.12;100.00
42001;BME280;27689;48.390;10.856;2022-11-24T03:01:13;95595.09;;;6.11;100.00
42001;BME280;27689;48.390;10.856;2022-11-24T03:03:57;95607.72;;;6.16;100.00
42001;BME280;27689;48.390;10.856;2022-11-24T03:06:41;95614.31;;;6.20;100.00
42001;BME280;27689;48.390;10.856;2022-11-24T03:09:26;95617.44;;;6.23;100.00
42001;BME280;27689;48.390;10.856;2022-11-24T03:12:10;95620.03;;;6.14;100.00
42001;BME280;27689;48.390;10.856;2022-11-24T03:14:54;95626.88;;;6.15;100.00
42001;BME280;27689;48.390;10.856;2022-11-24T03:17:38;95635.38;;;6.17;100.00
42001;BME280;27689;48.390;10.856;2022-11-24T03:20:22;95638.34;;;6.12;100.00
42001;BME280;27689;48.390;10.856;2022-11-24T03:23:07;95641.66;;;6.14;100.00
42001;BME280;27689;48.390;10.856;2022-11-24T03:25:51;95641.13;;;6.20;100.00
42001;BME280;27689;48.390;10.856;2022-11-24T03:28:35;95633.03;;;6.14;100.00
42001;BME280;27689;48.390;10.856;2022-11-24T03:31:20;95641.66;;;6.14;100.00
42001;BME280;27689;48.390;10.856;2022-11-24T03:34:04;95648.13;;;6.20;100.00
42001;BME280;27689;48.390;10.856;2022-11-24T03:36:48;95647.56;;;6.26;100.00
42001;BME280;27689;48.390;10.856;2022-11-24T03:39:32;95639.75;;;6.16;100.00
42001;BME280;27689;48.390;10.856;2022-11-24T03:42:16;95650.72;;;6.20;100.00
42001;BME280;27689;48.390;10.856;2022-11-24T03:45:00;95645.06;;;6.15;100.00
42001;BME280;27689;48.390;10.856;2022-11-24T03:47:44;95645.66;;;6.18;100.00
42001;BME280;27689;48.390;10.856;2022-11-24T03:50:28;95654.97;;;6.21;100.00
42001;BME280;27689;48.390;10.856;2022-11-24T03:53:12;95657.00;;;6.17;100.00
42001;BME280;27689;48.390;10.856;2022-11-24T03:55:56;95652.78;;;6.26;100.00
42001;BME280;27689;48.390;10.856;2022-11-24T03:58:40;95663.59;;;6.21;100.00
42001;BME280;27689;48.390;10.856;2022-11-24T04:01:24;95655.78;;;6.21;100.00
42001;BME280;27689;48.390;10.856;2022-11-24T04:04:09;95651.41;;;6.22;100.00
42001;BME280;27689;48.390;10.856;2022-11-24T04:06:53;95654.84;;;6.22;100.00
42001;BME280;27689;48.390;10.856;2022-11-24T04:09:37;95660.72;;;6.24;100.00
42001;BME280;27689;48.390;10.856;2022-11-24T04:12:21;95651.69;;;6.28;100.00
42001;BME280;27689;48.390;10.856;2022-11-24T04:15:24;95650.16;;;6.26;100.00
42001;BME280;27689;48.390;10.856;2022-11-24T04:18:10;95650.16;;;6.26;100.00
42001;BME280;27689;48.390;10.856;2022-11-24T04:20:54;95657.56;;;6.21;100.00
42001;BME280;27689;48.390;10.856;2022-11-24T04:23:38;95655.78;;;6.21;100.00
42001;BME280;27689;48.390;10.856;2022-11-24T04:26:22;95659.28;;;6.11;100.00
42001;BME280;27689;48.390;10.856;2022-11-24T04:29:08;95660.69;;;6.15;100.00
42001;BME280;27689;48.390;10.856;2022-11-24T04:31:52;95658.47;;;6.10;100.00
42001;BME280;27689;48.390;10.856;2022-11-24T04:34:36;95670.38;;;6.13;100.00
42001;BME280;27689;48.390;10.856;2022-11-24T04:37:20;95673.53;;;6.07;100.00
42001;BME280;27689;48.390;10.856;2022-11-24T04:40:05;95673.94;;;6.12;100.00
42001;BME280;27689;48.390;10.856;2022-11-24T04:42:53;95688.59;;;6.13;100.00
42001;BME280;27689;48.390;10.856;2022-11-24T04:45:38;95683.91;;;6.07;100.00
42001;BME280;27689;48.390;10.856;2022-11-24T04:48:22;95682.34;;;5.94;100.00
42001;BME280;27689;48.390;10.856;2022-11-24T04:51:06;95699.06;;;6.01;100.00
42001;BME280;27689;48.390;10.856;2022-11-24T04:53:50;95704.28;;;6.01;100.00
42001;BME280;27689;48.390;10.856;2022-11-24T04:56:34;95698.81;;;6.05;100.00
42001;BME280;27689;48.390;10.856;2022-11-24T04:59:18;95710.69;;;5.97;100.00
42001;BME280;27689;48.390;10.856;2022-11-24T05:02:02;95711.91;;;5.93;100.00
42001;BME280;27689;48.390;10.856;2022-11-24T05:04:48;95716.00;;;5.96;100.00
42001;BME280;27689;48.390;10.856;2022-11-24T05:07:32;95715.47;;;5.92;100.00
42001;BME280;27689;48.390;10.856;2022-11-24T05:10:17;95717.25;;;5.92;100.00
42001;BME280;27689;48.390;10.856;2022-11-24T05:13:20;95722.59;;;6.00;100.00
42001;BME280;27689;48.390;10.856;2022-11-24T05:16:04;95742.31;;;6.03;100.00
42001;BME280;27689;48.390;10.856;2022-11-24T05:18:48;95747.66;;;6.01;100.00
42001;BME280;27689;48.390;10.856;2022-11-24T05:21:32;95737.00;;;6.04;100.00
42001;BME280;27689;48.390;10.856;2022-11-24T05:24:16;95748.16;;;6.16;100.00
42001;BME280;27689;48.390;10.856;2022-11-24T05:27:00;95749.78;;;6.17;100.00
42001;BME280;27689;48.390;10.856;2022-11-24T05:29:45;95745.59;;;6.25;100.00
42001;BME280;27689;48.390;10.856;2022-11-24T05:32:29;95756.28;;;6.22;100.00
42001;BME280;27689;48.390;10.856;2022-11-24T05:35:13;95756.13;;;6.24;100.00
42001;BME280;27689;48.390;10.856;2022-11-24T05:37:57;95765.31;;;6.28;100.00
42001;BME280;27689;48.390;10.856;2022-11-24T05:40:42;95767.22;;;6.26;100.00
42001;BME280;27689;48.390;10.856;2022-11-24T05:43:26;95772.88;;;6.31;100.00
42001;BME280;27689;48.390;10.856;2022-11-24T05:46:10;95775.34;;;6.32;100.00
42001;BME280;27689;48.390;10.856;2022-11-24T05:48:54;95778.31;;;6.28;100.00
42001;BME280;27689;48.390;10.856;2022-11-24T05:51:38;95774.66;;;6.30;100.00
42001;BME280;27689;48.390;10.856;2022-11-24T05:54:22;95780.00;;;6.38;100.00
42001;BME280;27689;48.390;10.856;2022-11-24T05:57:06;95781.00;;;6.38;100.00
42001;BME280;27689;48.390;10.856;2022-11-24T05:59:50;95778.22;;;6.39;100.00
42001;BME280;27689;48.390;10.856;2022-11-24T06:02:34;95779.59;;;6.33;100.00
42001;BME280;27689;48.390;10.856;2022-11-24T06:05:18;95776.41;;;6.30;100.00
42001;BME280;27689;48.390;10.856;2022-11-24T06:08:02;95777.56;;;6.37;100.00
42001;BME280;27689;48.390;10.856;2022-11-24T06:10:47;95776.09;;;6.44;100.00
42001;BME280;27689;48.390;10.856;2022-11-24T06:13:31;95774.19;;;6.46;100.00
42001;BME280;27689;48.390;10.856;2022-11-24T06:16:15;95773.34;;;6.46;100.00
42001;BME280;27689;48.390;10.856;2022-11-24T06:18:59;95774.16;;;6.36;100.00
42001;BME280;27689;48.390;10.856;2022-11-24T06:21:43;95774.28;;;6.35;100.00
42001;BME280;27689;48.390;10.856;2022-11-24T06:24:27;95778.19;;;6.29;100.00
42001;BME280;27689;48.390;10.856;2022-11-24T06:27:12;95773.66;;;6.22;100.00
42001;BME280;27689;48.390;10.856;2022-11-24T06:29:56;95779.94;;;6.19;100.00
42001;BME280;27689;48.390;10.856;2022-11-24T06:32:40;95783.59;;;6.17;100.00
42001;BME280;27689;48.390;10.856;2022-11-24T06:35:27;95774.28;;;6.14;100.00
42001;BME280;27689;48.390;10.856;2022-11-24T06:38:11;95781.59;;;6.20;100.00
42001;BME280;27689;48.390;10.856;2022-11-24T06:41:06;95780.88;;;6.18;100.00
42001;BME280;27689;48.390;10.856;2022-11-24T06:43:50;95771.09;;;6.11;100.00
42001;BME280;27689;48.390;10.856;2022-11-24T06:46:34;95783.84;;;6.14;100.00
42001;BME280;27689;48.390;10.856;2022-11-24T06:49:18;95780.69;;;6.10;100.00
42001;BME280;27689;48.390;10.856;2022-11-24T06:52:02;95788.34;;;6.12;100.00
42001;BME280;27689;48.390;10.856;2022-11-24T06:54:46;95773.97;;;6.08;100.00
42001;BME280;27689;48.390;10.856;2022-11-24T06:57:30;95779.44;;;6.05;100.00
42001;BME280;27689;48.390;10.856;2022-11-24T07:00:15;95786.16;;;6.07;100.00
42001;BME280;27689;48.390;10.856;2022-11-24T07:03:00;95784.94;;;6.11;100.00
42001;BME280;27689;48.390;10.856;2022-11-24T07:05:44;95789.31;;;6.11;100.00
42001;BME280;27689;48.390;10.856;2022-11-24T07:08:28;95777.91;;;6.02;100.00
42001;BME280;27689;48.390;10.856;2022-11-24T07:11:15;95782.72;;;6.07;100.00
42001;BME280;27689;48.390;10.856;2022-11-24T07:13:59;95793.56;;;6.12;100.00
42001;BME280;27689;48.390;10.856;2022-11-24T07:16:43;95795.78;;;6.16;100.00
42001;BME280;27689;48.390;10.856;2022-11-24T07:19:28;95801.09;;;6.15;100.00
42001;BME280;27689;48.390;10.856;2022-11-24T07:22:11;95803.59;;;6.16;100.00
42001;BME280;27689;48.390;10.856;2022-11-24T07:24:56;95798.97;;;6.20;100.00
42001;BME280;27689;48.390;10.856;2022-11-24T07:27:40;95797.31;;;6.19;100.00
42001;BME280;27689;48.390;10.856;2022-11-24T07:30:25;95795.66;;;6.18;100.00
42001;BME280;27689;48.390;10.856;2022-11-24T07:33:09;95801.44;;;6.21;100.00
42001;BME280;27689;48.390;10.856;2022-11-24T07:35:53;95801.16;;;6.24;100.00
42001;BME280;27689;48.390;10.856;2022-11-24T07:38:41;95805.88;;;6.30;100.00
42001;BME280;27689;48.390;10.856;2022-11-24T07:41:25;95796.28;;;6.31;100.00
42001;BME280;27689;48.390;10.856;2022-11-24T07:44:09;95803.72;;;6.35;100.00
42001;BME280;27689;48.390;10.856;2022-11-24T07:46:53;95804.00;;;6.42;100.00
42001;BME280;27689;48.390;10.856;2022-11-24T07:49:38;95805.41;;;6.46;100.00
42001;BME280;27689;48.390;10.856;2022-11-24T07:52:22;95801.72;;;6.49;100.00
42001;BME280;27689;48.390;10.856;2022-11-24T07:55:09;95814.97;;;6.66;100.00
42001;BME280;27689;48.390;10.856;2022-11-24T07:57:53;95815.69;;;6.78;100.00
42001;BME280;27689;48.390;10.856;2022-11-24T08:00:37;95814.88;;;6.78;100.00
42001;BME280;27689;48.390;10.856;2022-11-24T08:03:21;95815.06;;;6.95;100.00
42001;BME280;27689;48.390;10.856;2022-11-24T08:06:06;95814.16;;;7.16;100.00
42001;BME280;27689;48.390;10.856;2022-11-24T08:08:50;95808.69;;;7.19;100.00
42001;BME280;27689;48.390;10.856;2022-11-24T08:11:34;95816.38;;;7.30;100.00
42001;BME280;27689;48.390;10.856;2022-11-24T08:14:19;95805.88;;;7.41;100.00
42001;BME280;27689;48.390;10.856;2022-11-24T08:17:03;95818.22;;;7.49;100.00
42001;BME280;27689;48.390;10.856;2022-11-24T08:19:47;95808.03;;;7.46;100.00
42001;BME280;27689;48.390;10.856;2022-11-24T08:22:31;95817.78;;;7.43;100.00
42001;BME280;27689;48.390;10.856;2022-11-24T08:25:15;95823.81;;;7.44;100.00
42001;BME280;27689;48.390;10.856;2022-11-24T08:28:02;95815.03;;;7.45;100.00
42001;BME280;27689;48.390;10.856;2022-11-24T08:30:47;95819.16;;;7.48;100.00
42001;BME280;27689;48.390;10.856;2022-11-24T08:33:31;95821.94;;;7.56;100.00
42001;BME280;27689;48.390;10.856;2022-11-24T08:36:17;95818.38;;;7.57;99.16
42001;BME280;27689;48.390;10.856;2022-11-24T08:39:02;95812.16;;;7.58;99.22
42001;BME280;27689;48.390;10.856;2022-11-24T08:41:46;95805.59;;;7.63;99.57
42001;BME280;27689;48.390;10.856;2022-11-24T08:44:30;95811.09;;;7.60;99.56
42001;BME280;27689;48.390;10.856;2022-11-24T08:47:14;95802.88;;;7.65;98.53
42001;BME280;27689;48.390;10.856;2022-11-24T08:49:58;95805.75;;;7.71;98.17
42001;BME280;27689;48.390;10.856;2022-11-24T08:52:42;95817.41;;;7.77;98.28
42001;BME280;27689;48.390;10.856;2022-11-24T08:55:26;95819.47;;;7.83;97.02
42001;BME280;27689;48.390;10.856;2022-11-24T08:58:10;95815.63;;;7.87;98.06
42001;BME280;27689;48.390;10.856;2022-11-24T09:00:55;95815.50;;;7.98;96.87
42001;BME280;27689;48.390;10.856;2022-11-24T09:03:47;95822.47;;;8.07;96.17
42001;BME280;27689;48.390;10.856;2022-11-24T09:06:31;95821.53;;;8.08;96.97
42001;BME280;27689;48.390;10.856;2022-11-24T09:09:15;95830.84;;;8.21;95.70
42001;BME280;27689;48.390;10.856;2022-11-24T09:11:59;95820.81;;;8.26;95.14
42001;BME280;27689;48.390;10.856;2022-11-24T09:14:43;95815.06;;;8.22;93.68
42001;BME280;27689;48.390;10.856;2022-11-24T09:17:27;95827.97;;;8.24;94.21
42001;BME280;27689;48.390;10.856;2022-11-24T09:20:11;95820.69;;;8.18;94.02
42001;BME280;27689;48.390;10.856;2022-11-24T09:22:55;95834.28;;;8.31;93.36
42001;BME280;27689;48.390;10.856;2022-11-24T09:25:40;95830.84;;;8.30;93.27
42001;BME280;27689;48.390;10.856;2022-11-24T09:28:24;95841.56;;;8.27;93.72
42001;BME280;27689;48.390;10.856;2022-11-24T09:31:09;95846.63;;;8.19;95.69
42001;BME280;27689;48.390;10.856;2022-11-24T09:33:54;95854.59;;;8.18;95.59
42001;BME280;27689;48.390;10.856;2022-11-24T09:36:38;95840.75;;;8.07;97.80
42001;BME280;27689;48.390;10.856;2022-11-24T09:39:23;95851.06;;;7.99;98.66
42001;BME280;27689;48.390;10.856;2022-11-24T09:42:16;95861.19;;;8.02;98.78
42001;BME280;27689;48.390;10.856;2022-11-24T09:45:18;95863.13;;;8.00;99.96
42001;BME280;27689;48.390;10.856;2022-11-24T09:48:13;95858.72;;;7.91;99.78
42001;BME280;27689;48.390;10.856;2022-11-24T09:51:01;95861.47;;;7.70;100.00
42001;BME280;27689;48.390;10.856;2022-11-24T09:53:54;95858.31;;;7.76;100.00
42001;BME280;27689;48.390;10.856;2022-11-24T09:56:41;95858.16;;;7.78;100.00
42001;BME280;27689;48.390;10.856;2022-11-24T09:59:25;95862.00;;;7.74;100.00
42001;BME280;27689;48.390;10.856;2022-11-24T10:02:11;95872.28;;;7.66;100.00
42001;BME280;27689;48.390;10.856;2022-11-24T10:04:56;95873.13;;;7.57;100.00
42001;BME280;27689;48.390;10.856;2022-11-24T10:07:54;95874.34;;;7.53;100.00
42001;BME280;27689;48.390;10.856;2022-11-24T10:10:50;95881.84;;;7.46;100.00
42001;BME280;27689;48.390;10.856;2022-11-24T10:13:57;95882.66;;;7.47;100.00
42001;BME280;27689;48.390;10.856;2022-11-24T10:19:50;95892.41;;;7.44;100.00
42001;BME280;27689;48.390;10.856;2022-11-24T10:23:17;95882.53;;;7.48;100.00
42001;BME280;27689;48.390;10.856;2022-11-24T10:29:00;95901.47;;;7.50;100.00
42001;BME280;27689;48.390;10.856;2022-11-24T10:31:47;95904.53;;;7.65;100.00
42001;BME280;27689;48.390;10.856;2022-11-24T10:34:38;95898.47;;;7.55;100.00
42001;BME280;27689;48.390;10.856;2022-11-24T10:37:43;95896.97;;;7.62;100.00
42001;BME280;27689;48.390;10.856;2022-11-24T10:40:37;95906.88;;;7.68;100.00
42001;BME280;27689;48.390;10.856;2022-11-24T10:43:23;95910.59;;;7.75;100.00
42001;BME280;27689;48.390;10.856;2022-11-24T10:46:10;95905.38;;;7.65;100.00
42001;BME280;27689;48.390;10.856;2022-11-24T10:49:01;95911.53;;;7.64;100.00
42001;BME280;27689;48.390;10.856;2022-11-24T10:55:01;95916.75;;;7.74;100.00
42001;BME280;27689;48.390;10.856;2022-11-24T10:57:45;95919.09;;;7.77;100.00
42001;BME280;27689;48.390;10.856;2022-11-24T11:00:30;95916.94;;;7.92;100.00
42001;BME280;27689;48.390;10.856;2022-11-24T11:03:18;95924.09;;;7.99;100.00
42001;BME280;27689;48.390;10.856;2022-11-24T11:06:10;95923.66;;;7.94;100.00
42001;BME280;27689;48.390;10.856;2022-11-24T11:11:52;95933.09;;;7.76;100.00
42001;BME280;27689;48.390;10.856;2022-11-24T11:14:36;95926.09;;;7.67;100.00
42001;BME280;27689;48.390;10.856;2022-11-24T11:17:37;95927.63;;;7.79;100.00
42001;BME280;27689;48.390;10.856;2022-11-24T11:20:26;95931.03;;;7.70;100.00
42001;BME280;27689;48.390;10.856;2022-11-24T11:23:18;95931.19;;;7.78;100.00
42001;BME280;27689;48.390;10.856;2022-11-24T11:32:02;95918.59;;;7.93;100.00
42001;BME280;27689;48.390;10.856;2022-11-24T11:34:47;95924.88;;;7.90;100.00
42001;BME280;27689;48.390;10.856;2022-11-24T11:37:32;95925.59;;;8.11;100.00
42001;BME280;27689;48.390;10.856;2022-11-24T11:40:23;95924.78;;;8.21;100.00
42001;BME280;27689;48.390;10.856;2022-11-24T11:43:21;95923.03;;;8.31;100.00
42001;BME280;27689;48.390;10.856;2022-11-24T11:46:11;95924.66;;;8.32;100.00
42001;BME280;27689;48.390;10.856;2022-11-24T11:48:56;95934.56;;;8.38;98.22
42001;BME280;27689;48.390;10.856;2022-11-24T11:51:55;95920.28;;;8.32;99.89
42001;BME280;27689;48.390;10.856;2022-11-24T12:01:18;95934.00;;;8.54;96.27
42001;BME280;27689;48.390;10.856;2022-11-24T12:04:23;95935.34;;;8.77;95.24
42001;BME280;27689;48.390;10.856;2022-11-24T12:10:41;95928.09;;;8.71;96.11
42001;BME280;27689;48.390;10.856;2022-11-24T12:23:17;95937.56;;;8.81;93.81
42001;BME280;27689;48.390;10.856;2022-11-24T12:26:20;95946.91;;;8.84;93.63
42001;BME280;27689;48.390;10.856;2022-11-24T12:35:35;95945.81;;;8.77;93.17
42001;BME280;27689;48.390;10.856;2022-11-24T12:41:40;95948.97;;;8.61;92.30
42001;BME280;27689;48.390;10.856;2022-11-24T12:48:06;95949.41;;;8.47;95.43
42001;BME280;27689;48.390;10.856;2022-11-24T12:50:56;95957.91;;;8.49;95.33
42001;BME280;27689;48.390;10.856;2022-11-24T12:53:42;95952.44;;;8.52;95.01
42001;BME280;27689;48.390;10.856;2022-11-24T13:00:03;95964.53;;;8.43;95.24
42001;BME280;27689;48.390;10.856;2022-11-24T13:06:24;95972.78;;;8.58;93.77
42001;BME280;27689;48.390;10.856;2022-11-24T13:09:12;95973.59;;;8.68;92.63
42001;BME280;27689;48.390;10.856;2022-11-24T13:12:12;95969.59;;;8.55;93.18
42001;BME280;27689;48.390;10.856;2022-11-24T13:14:57;95965.63;;;8.51;92.98
42001;BME280;27689;48.390;10.856;2022-11-24T13:17:41;95970.00;;;8.50;93.01
42001;BME280;27689;48.390;10.856;2022-11-24T13:20:32;95972.50;;;8.42;94.13
42001;BME280;27689;48.390;10.856;2022-11-24T13:23:23;95972.34;;;8.53;93.48
42001;BME280;27689;48.390;10.856;2022-11-24T13:26:22;95985.97;;;8.57;94.13
42001;BME280;27689;48.390;10.856;2022-11-24T13:29:30;95993.66;;;8.39;95.57
42001;BME280;27689;48.390;10.856;2022-11-24T13:35:14;95994.75;;;8.36;96.02
42001;BME280;27689;48.390;10.856;2022-11-24T13:37:58;95989.38;;;8.38;95.57
42001;BME280;27689;48.390;10.856;2022-11-24T13:40:42;95991.47;;;8.44;95.11
42001;BME280;27689;48.390;10.856;2022-11-24T13:43:26;95987.16;;;8.24;95.14
42001;BME280;27689;48.390;10.856;2022-11-24T13:46:10;95993.72;;;8.18;95.16
42001;BME280;27689;48.390;10.856;2022-11-24T13:48:58;95983.03;;;8.31;92.88
42001;BME280;27689;48.390;10.856;2022-11-24T13:51:42;95992.53;;;8.32;92.88
42001;BME280;27689;48.390;10.856;2022-11-24T13:54:27;95997.88;;;8.30;91.43
42001;BME280;27689;48.390;10.856;2022-11-24T14:03:25;96004.72;;;8.31;90.80
42001;BME280;27689;48.390;10.856;2022-11-24T14:06:30;96004.06;;;8.29;91.47
42001;BME280;27689;48.390;10.856;2022-11-24T14:12:24;96013.69;;;8.38;89.84
42001;BME280;27689;48.390;10.856;2022-11-24T14:15:22;96024.16;;;8.38;90.52
42001;BME280;27689;48.390;10.856;2022-11-24T14:18:20;96019.59;;;8.31;90.32
42001;BME280;27689;48.390;10.856;2022-11-24T14:24:26;96000.31;;;8.12;92.92
42001;BME280;27689;48.390;10.856;2022-11-24T14:27:14;96002.75;;;8.04;92.52
42001;BME280;27689;48.390;10.856;2022-11-24T14:30:20;96006.75;;;8.08;92.28
42001;BME280;27689;48.390;10.856;2022-11-24T14:33:09;96001.53;;;8.08;92.00
42001;BME280;27689;48.390;10.856;2022-11-24T14:35:53;96008.09;;;8.03;92.23
42001;BME280;27689;48.390;10.856;2022-11-24T14:38:37;96015.09;;;8.02;91.89
42001;BME280;27689;48.390;10.856;2022-11-24T14:41:24;96011.97;;;7.99;92.77
42001;BME280;27689;48.390;10.856;2022-11-24T14:44:18;96016.88;;;8.02;93.01
42001;BME280;27689;48.390;10.856;2022-11-24T14:47:05;96017.72;;;8.02;93.20
42001;BME280;27689;48.390;10.856;2022-11-24T14:49:50;96018.53;;;8.03;93.81
42001;BME280;27689;48.390;10.856;2022-11-24T14:52:35;96026.78;;;7.98;94.36
42001;BME280;27689;48.390;10.856;2022-11-24T14:55:30;96036.41;;;7.98;94.56
42001;BME280;27689;48.390;10.856;2022-11-24T14:58:29;96043.81;;;8.02;94.79
42001;BME280;27689;48.390;10.856;2022-11-24T15:04:13;96049.84;;;8.03;94.99
42001;BME280;27689;48.390;10.856;2022-11-24T15:07:23;96063.84;;;8.02;95.63
42001;BME280;27689;48.390;10.856;2022-11-24T15:13:22;96078.25;;;7.96;98.37
42001;BME280;27689;48.390;10.856;2022-11-24T15:16:14;96070.75;;;8.12;97.75
42001;BME280;27689;48.390;10.856;2022-11-24T15:19:00;96058.44;;;7.84;99.41
42001;BME280;27689;48.390;10.856;2022-11-24T15:21:45;96067.63;;;7.88;100.00
42001;BME280;27689;48.390;10.856;2022-11-24T15:24:29;96063.34;;;7.77;100.00
42001;BME280;27689;48.390;10.856;2022-11-24T15:27:13;96069.22;;;7.70;100.00
42001;BME280;27689;48.390;10.856;2022-11-24T15:29:57;96053.22;;;7.54;100.00
42001;BME280;27689;48.390;10.856;2022-11-24T15:35:33;96067.47;;;7.50;100.00
42001;BME280;27689;48.390;10.856;2022-11-24T15:38:17;96070.31;;;7.47;100.00
42001;BME280;27689;48.390;10.856;2022-11-24T15:41:01;96069.38;;;7.48;100.00
42001;BME280;27689;48.390;10.856;2022-11-24T15:43:45;96073.19;;;7.43;100.00
42001;BME280;27689;48.390;10.856;2022-11-24T15:46:30;96079.09;;;7.46;100.00
42001;BME280;27689;48.390;10.856;2022-11-24T15:49:20;96078.69;;;7.40;100.00
42001;BME280;27689;48.390;10.856;2022-11-24T15:52:04;96081.97;;;7.42;100.00
42001;BME280;27689;48.390;10.856;2022-11-24T15:54:52;96083.88;;;7.40;100.00
42001;BME280;27689;48.390;10.856;2022-11-24T15:57:38;96080.72;;;7.37;100.00
42001;BME280;27689;48.390;10.856;2022-11-24T16:00:22;96091.00;;;7.38;100.00
42001;BME280;27689;48.390;10.856;2022-11-24T16:03:06;96091.25;;;7.35;100.00